Time;durP1;ratioP1;P1;durP2;ratioP2;P2;SDS_P1;SDS_P2;PMS_P1;PMS_P2;Temp;Humidity;BMP_temperature;BMP_pressure;BME280_temperature;BME280_humidity;BME280_pressure;Samples;Min_cycle;Max_cycle;Signal;HPM_P1;HPM_P2
2023/08/28 00:04:56;;;;;;;;;;;13.40;99.90;;;;;;12288359;28;20202;-82
2023/08/28 00:10:58;;;;;;;;;;;13.30;99.90;;;;;;12282048;28;20000;-81
2023/08/28 00:16:59;;;;;;;;;;;13.40;99.90;;;;;;12289536;28;19953;-79
2023/08/28 00:23:01;;;;;;;;;;;13.40;99.90;;;;;;12289209;28;19931;-80
2023/08/28 00:29:04;;;;;;;;;;;13.50;99.90;;;;;;12299471;28;19937;-80
2023/08/28 00:35:06;;;;;;;;;;;13.40;99.90;;;;;;12325461;28;19964;-81
2023/08/28 00:41:08;;;;;;;;;;;13.50;99.90;;;;;;12323218;28;19923;-81
2023/08/28 00:47:10;;;;;;;;;;;13.40;99.90;;;;;;12324937;28;19950;-81
2023/08/28 00:53:12;;;;;;;;;;;13.50;99.90;;;;;;12325845;28;19935;-80
2023/08/28 00:59:15;;;;;;;;;;;13.40;99.90;;;;;;12348323;28;19933;-81
2023/08/28 01:05:17;;;;;;;;;;;13.20;99.90;;;;;;12313350;28;19934;-82
2023/08/28 01:11:44;;;;;;;;;;;13.40;99.90;;;;;;12328303;28;19926;-83
2023/08/28 01:17:48;;;;;;;;;;;13.30;99.90;;;;;;12317370;28;19930;-81
2023/08/28 01:23:55;;;;;;;;;;;13.30;99.90;;;;;;12308851;28;19961;-82
2023/08/28 01:30:24;;;;;;;;;;;13.20;99.90;;;;;;12293083;28;19941;-81
2023/08/28 01:36:33;;;;;;;;;;;13.20;99.90;;;;;;12291135;28;19930;-81
2023/08/28 01:42:38;;;;;;;;;;;13.00;99.90;;;;;;12282264;28;19943;-81
2023/08/28 01:48:44;;;;;;;;;;;13.00;99.90;;;;;;12297231;28;19926;-82
2023/08/28 01:54:46;;;;;;;;;;;13.00;99.90;;;;;;12275636;28;19930;-84
2023/08/28 02:00:48;;;;;;;;;;;13.10;99.90;;;;;;12275687;28;19930;-82
2023/08/28 02:06:50;;;;;;;;;;;13.10;99.90;;;;;;12291857;28;19931;-82
2023/08/28 02:12:52;;;;;;;;;;;13.10;99.90;;;;;;12275148;28;19931;-81
2023/08/28 02:18:54;;;;;;;;;;;13.00;99.90;;;;;;12278635;28;19949;-81
2023/08/28 02:24:58;;;;;;;;;;;13.00;99.90;;;;;;12262907;28;20021;-81
2023/08/28 02:31:00;;;;;;;;;;;13.00;99.90;;;;;;12275375;28;20434;-81
2023/08/28 02:37:02;;;;;;;;;;;12.90;99.90;;;;;;12272903;28;19965;-83
2023/08/28 02:43:07;;;;;;;;;;;12.80;99.90;;;;;;12277552;28;20526;-82
2023/08/28 02:49:09;;;;;;;;;;;12.80;99.90;;;;;;12270197;28;19930;-80
2023/08/28 02:55:11;;;;;;;;;;;12.70;99.90;;;;;;12278056;28;21332;-81
2023/08/28 03:01:17;;;;;;;;;;;12.80;99.90;;;;;;12288767;28;20387;-80
2023/08/28 03:07:19;;;;;;;;;;;12.80;99.90;;;;;;12307799;28;19931;-80
2023/08/28 03:13:21;;;;;;;;;;;12.80;99.90;;;;;;12292515;28;19938;-80
2023/08/28 03:19:23;;;;;;;;;;;12.80;99.90;;;;;;12296217;28;20022;-80
2023/08/28 03:25:25;;;;;;;;;;;12.80;99.90;;;;;;12336357;28;19937;-80
2023/08/28 03:31:27;;;;;;;;;;;13.00;99.90;;;;;;12338041;28;20001;-80
2023/08/28 03:37:29;;;;;;;;;;;13.00;99.90;;;;;;12335082;28;19973;-81
2023/08/28 03:43:31;;;;;;;;;;;13.00;99.90;;;;;;12328320;28;19941;-80
2023/08/28 03:49:33;;;;;;;;;;;13.00;99.90;;;;;;12305748;28;20172;-81
2023/08/28 03:55:35;;;;;;;;;;;13.00;99.90;;;;;;12284018;28;20425;-80
2023/08/28 04:01:37;;;;;;;;;;;13.00;99.90;;;;;;12305342;28;19969;-81
2023/08/28 04:07:39;;;;;;;;;;;13.00;99.90;;;;;;12284899;28;19973;-81
2023/08/28 04:13:41;;;;;;;;;;;13.00;99.90;;;;;;12291535;28;20376;-80
2023/08/28 04:19:43;;;;;;;;;;;13.00;99.90;;;;;;12290616;28;19930;-80
2023/08/28 04:25:45;;;;;;;;;;;13.10;99.90;;;;;;12280563;28;19930;-80
2023/08/28 04:31:47;;;;;;;;;;;13.10;99.90;;;;;;12286167;28;20450;-80
2023/08/28 04:37:50;;;;;;;;;;;13.10;99.90;;;;;;12274667;28;19993;-80
2023/08/28 04:43:52;;;;;;;;;;;13.10;99.90;;;;;;12278862;28;20009;-80
2023/08/28 04:49:54;;;;;;;;;;;13.10;99.90;;;;;;12292662;28;20013;-80
2023/08/28 04:55:56;;;;;;;;;;;13.40;99.90;;;;;;12281081;28;19930;-81
2023/08/28 05:01:58;;;;;;;;;;;14.00;99.90;;;;;;12273704;28;19935;-80
2023/08/28 05:07:59;;;;;;;;;;;13.90;99.90;;;;;;12272167;28;19933;-80
2023/08/28 05:14:04;;;;;;;;;;;13.90;99.90;;;;;;12280250;28;19930;-80
2023/08/28 05:20:06;;;;;;;;;;;13.70;99.90;;;;;;12275396;28;20469;-80
2023/08/28 05:26:08;;;;;;;;;;;13.40;99.90;;;;;;12296056;28;19952;-80
2023/08/28 05:32:10;;;;;;;;;;;13.40;99.90;;;;;;12276077;28;19931;-82
2023/08/28 05:38:12;;;;;;;;;;;13.20;99.90;;;;;;12275767;28;20011;-81
2023/08/28 05:44:14;;;;;;;;;;;13.10;99.90;;;;;;12274140;28;19931;-80
2023/08/28 05:50:18;;;;;;;;;;;13.10;99.90;;;;;;12276841;28;20396;-80
2023/08/28 05:56:20;;;;;;;;;;;13.00;99.90;;;;;;12271350;28;19938;-81
2023/08/28 06:02:25;;;;;;;;;;;13.10;99.90;;;;;;12295704;28;19934;-81
2023/08/28 06:08:27;;;;;;;;;;;13.20;99.90;;;;;;12272651;28;19984;-80
2023/08/28 06:14:29;;;;;;;;;;;13.10;99.90;;;;;;12273851;28;19930;-80
2023/08/28 06:20:31;;;;;;;;;;;13.20;99.90;;;;;;12278286;28;20441;-81
2023/08/28 06:26:33;;;;;;;;;;;13.20;99.90;;;;;;12273566;28;19930;-80
2023/08/28 06:32:35;;;;;;;;;;;13.30;99.90;;;;;;12280304;28;19942;-80
2023/08/28 06:38:40;;;;;;;;;;;13.50;99.90;;;;;;12281945;28;19930;-81
2023/08/28 06:44:41;;;;;;;;;;;13.70;99.90;;;;;;12284586;28;19930;-81
2023/08/28 06:50:43;;;;;;;;;;;13.70;99.90;;;;;;12283018;28;19941;-80
2023/08/28 06:56:45;;;;;;;;;;;13.90;99.90;;;;;;12282345;28;20338;-80
2023/08/28 07:02:47;;;;;;;;;;;14.00;99.90;;;;;;12283592;28;19931;-81
2023/08/28 07:08:49;;;;;;;;;;;14.20;99.90;;;;;;12285590;28;19930;-81
2023/08/28 07:15:10;;;;;;;;;;;14.20;99.90;;;;;;12280143;28;19984;-80
2023/08/28 07:21:11;;;;;;;;;;;14.30;99.90;;;;;;12292771;28;19995;-80
2023/08/28 07:27:13;;;;;;;;;;;14.50;99.90;;;;;;12285526;28;20467;-80
2023/08/28 07:33:17;;;;;;;;;;;14.60;99.90;;;;;;12298910;28;19934;-83
2023/08/28 07:39:19;;;;;;;;;;;14.60;99.90;;;;;;12276612;28;19931;-80
2023/08/28 07:45:24;;;;;;;;;;;14.90;99.90;;;;;;12275242;28;19958;-82
2023/08/28 07:51:26;;;;;;;;;;;14.40;99.90;;;;;;12284707;28;20470;-81
2023/08/28 07:57:28;;;;;;;;;;;14.30;99.90;;;;;;12282135;28;19938;-82
2023/08/28 08:03:29;;;;;;;;;;;14.20;99.90;;;;;;12295956;28;19965;-81
2023/08/28 08:09:32;;;;;;;;;;;14.30;99.90;;;;;;12281047;28;19934;-81
2023/08/28 08:15:34;;;;;;;;;;;14.80;99.90;;;;;;12299163;28;20347;-81
2023/08/28 08:21:36;;;;;;;;;;;14.80;99.90;;;;;;12294259;28;19931;-81
2023/08/28 08:27:39;;;;;;;;;;;15.20;99.90;;;;;;12277357;28;19965;-82
2023/08/28 08:33:41;;;;;;;;;;;15.50;99.90;;;;;;12282757;28;20357;-81
2023/08/28 08:39:44;;;;;;;;;;;15.70;99.90;;;;;;12273910;28;20330;-81
2023/08/28 08:45:47;;;;;;;;;;;15.90;99.90;;;;;;12278824;28;19930;-81
2023/08/28 08:51:51;;;;;;;;;;;15.60;99.90;;;;;;12275877;28;19969;-82
2023/08/28 08:57:54;;;;;;;;;;;15.70;99.90;;;;;;12275183;28;19934;-80
2023/08/28 09:03:58;;;;;;;;;;;15.80;99.90;;;;;;12278486;28;19933;-81
2023/08/28 09:10:01;;;;;;;;;;;16.00;99.90;;;;;;12287290;28;19937;-80
2023/08/28 09:16:04;;;;;;;;;;;16.20;99.90;;;;;;12276564;28;19934;-81
2023/08/28 09:22:06;;;;;;;;;;;16.30;99.90;;;;;;12277179;28;19937;-81
2023/08/28 09:28:08;;;;;;;;;;;16.70;99.90;;;;;;12276352;28;20410;-83
2023/08/28 09:34:10;;;;;;;;;;;16.80;99.90;;;;;;12278144;28;20017;-81
2023/08/28 09:40:12;;;;;;;;;;;16.40;99.90;;;;;;12270030;28;21145;-80
2023/08/28 09:46:14;;;;;;;;;;;16.50;99.90;;;;;;12294630;28;19933;-81
2023/08/28 09:52:22;;;;;;;;;;;16.60;99.90;;;;;;12273363;28;19942;-80
2023/08/28 09:58:27;;;;;;;;;;;16.60;99.90;;;;;;12273349;28;21329;-81
2023/08/28 10:04:33;;;;;;;;;;;16.40;99.90;;;;;;12280224;28;20478;-81
2023/08/28 10:10:35;;;;;;;;;;;16.80;99.90;;;;;;12271416;28;19954;-81
2023/08/28 10:17:00;;;;;;;;;;;16.80;99.90;;;;;;12265915;28;19933;-81
2023/08/28 10:23:03;;;;;;;;;;;16.70;99.90;;;;;;12274978;28;19931;-81
2023/08/28 10:29:07;;;;;;;;;;;16.90;99.90;;;;;;12276970;28;19937;-81
2023/08/28 10:35:13;;;;;;;;;;;16.90;99.90;;;;;;12277246;28;20009;-80
2023/08/28 10:41:15;;;;;;;;;;;17.00;99.90;;;;;;12271505;28;19977;-81
2023/08/28 10:47:18;;;;;;;;;;;17.00;99.90;;;;;;12287407;28;19930;-81
2023/08/28 10:53:20;;;;;;;;;;;17.20;99.90;;;;;;12270877;28;19934;-81
2023/08/28 10:59:24;;;;;;;;;;;17.40;99.90;;;;;;12276187;28;19984;-81
2023/08/28 11:05:26;;;;;;;;;;;17.50;99.90;;;;;;12269793;28;19934;-81
2023/08/28 11:11:28;;;;;;;;;;;17.60;99.90;;;;;;12271409;28;19937;-81
2023/08/28 11:17:31;;;;;;;;;;;17.60;99.90;;;;;;12276791;28;19931;-81
2023/08/28 11:23:42;;;;;;;;;;;17.50;99.90;;;;;;12297133;28;19930;-81
2023/08/28 11:29:44;;;;;;;;;;;17.20;99.90;;;;;;12278881;28;19930;-81
2023/08/28 11:35:46;;;;;;;;;;;17.30;99.90;;;;;;12278092;28;19977;-81
2023/08/28 11:41:50;;;;;;;;;;;18.10;99.90;;;;;;12271502;28;20022;-81
2023/08/28 11:47:52;;;;;;;;;;;18.80;99.90;;;;;;12282096;28;19986;-82
2023/08/28 11:53:54;;;;;;;;;;;18.80;99.90;;;;;;12282396;28;19930;-82
2023/08/28 11:59:59;;;;;;;;;;;19.00;99.90;;;;;;12274928;28;20383;-82
2023/08/28 12:06:08;;;;;;;;;;;19.60;99.90;;;;;;12286352;28;19947;-82
2023/08/28 12:12:10;;;;;;;;;;;19.50;99.90;;;;;;12271990;28;20014;-81
2023/08/28 12:18:14;;;;;;;;;;;19.30;99.90;;;;;;12275842;28;19938;-81
2023/08/28 12:24:16;;;;;;;;;;;19.50;99.90;;;;;;12280345;28;19977;-81
2023/08/28 12:30:21;;;;;;;;;;;20.20;99.90;;;;;;12285961;28;20497;-82
2023/08/28 12:36:36;;;;;;;;;;;20.60;99.90;;;;;;12291007;28;20468;-82
2023/08/28 12:42:38;;;;;;;;;;;20.40;99.90;;;;;;12279157;28;19933;-82
2023/08/28 12:48:40;;;;;;;;;;;20.60;99.90;;;;;;12282305;28;19930;-82
2023/08/28 12:54:44;;;;;;;;;;;20.70;99.90;;;;;;12277794;28;19931;-82
2023/08/28 13:00:53;;;;;;;;;;;20.60;99.90;;;;;;12273435;28;19930;-82
2023/08/28 13:06:58;;;;;;;;;;;20.60;99.90;;;;;;12271429;28;20194;-82
2023/08/28 13:13:01;;;;;;;;;;;20.60;99.90;;;;;;12276770;28;19930;-81
2023/08/28 13:19:06;;;;;;;;;;;20.70;99.90;;;;;;12279408;28;20540;-81
2023/08/28 13:25:08;;;;;;;;;;;20.40;99.90;;;;;;12279423;28;19976;-81
2023/08/28 13:31:11;;;;;;;;;;;20.50;99.90;;;;;;12271081;28;19937;-82
2023/08/28 13:37:13;;;;;;;;;;;20.80;99.90;;;;;;12278326;28;20010;-82
2023/08/28 13:43:15;;;;;;;;;;;20.90;99.90;;;;;;12276797;28;19931;-83
2023/08/28 13:49:17;;;;;;;;;;;20.90;99.90;;;;;;12290333;28;19934;-83
2023/08/28 13:55:19;;;;;;;;;;;20.30;99.90;;;;;;12270577;28;19934;-81
2023/08/28 14:01:21;;;;;;;;;;;20.10;99.90;;;;;;12275756;28;19934;-82
2023/08/28 14:07:23;;;;;;;;;;;20.00;99.90;;;;;;12291802;28;19930;-82
2023/08/28 14:13:25;;;;;;;;;;;19.70;99.90;;;;;;12279084;28;19977;-82
2023/08/28 14:19:27;;;;;;;;;;;19.70;99.90;;;;;;12276882;28;20299;-82
2023/08/28 14:25:29;;;;;;;;;;;19.70;99.90;;;;;;12275000;28;19931;-82
2023/08/28 14:31:31;;;;;;;;;;;19.80;99.90;;;;;;12276495;28;20025;-82
2023/08/28 14:37:33;;;;;;;;;;;19.80;99.90;;;;;;12289099;28;19934;-83
2023/08/28 14:43:34;;;;;;;;;;;19.80;99.90;;;;;;12268972;28;19934;-81
2023/08/28 14:49:38;;;;;;;;;;;19.60;99.90;;;;;;12269807;28;19930;-82
2023/08/28 14:55:40;;;;;;;;;;;19.60;99.90;;;;;;12283395;28;19931;-81
2023/08/28 15:01:42;;;;;;;;;;;19.50;99.90;;;;;;12284776;28;19977;-82
2023/08/28 15:07:44;;;;;;;;;;;19.60;99.90;;;;;;12290342;28;19926;-82
2023/08/28 15:13:46;;;;;;;;;;;19.50;99.90;;;;;;12289291;28;19933;-82
2023/08/28 15:19:47;;;;;;;;;;;19.70;99.90;;;;;;12290754;28;19926;-81
2023/08/28 15:25:52;;;;;;;;;;;19.80;99.90;;;;;;12298535;28;19958;-83
2023/08/28 15:31:54;;;;;;;;;;;19.70;99.90;;;;;;12324074;28;19934;-82
2023/08/28 15:37:58;;;;;;;;;;;19.60;99.90;;;;;;12337420;28;19953;-82
2023/08/28 15:44:03;;;;;;;;;;;19.50;99.90;;;;;;12330255;28;19946;-82
2023/08/28 15:50:05;;;;;;;;;;;19.40;99.90;;;;;;12327119;28;19930;-82
2023/08/28 15:56:07;;;;;;;;;;;19.40;99.90;;;;;;12327766;28;19926;-82
2023/08/28 16:02:09;;;;;;;;;;;19.20;99.90;;;;;;12286092;28;19942;-82
2023/08/28 16:08:11;;;;;;;;;;;19.30;99.90;;;;;;12286747;28;20424;-81
2023/08/28 16:14:16;;;;;;;;;;;19.60;99.90;;;;;;12291804;28;19942;-82
2023/08/28 16:20:18;;;;;;;;;;;20.10;99.90;;;;;;12293451;28;20158;-82
2023/08/28 16:26:20;;;;;;;;;;;20.30;99.90;;;;;;12289252;28;19930;-82
2023/08/28 16:32:25;;;;;;;;;;;19.80;99.90;;;;;;12284740;28;19934;-82
2023/08/28 16:38:27;;;;;;;;;;;19.40;99.90;;;;;;12276900;28;20414;-81
2023/08/28 16:44:31;;;;;;;;;;;19.20;99.90;;;;;;12278973;28;19970;-81
2023/08/28 16:50:41;;;;;;;;;;;19.10;99.90;;;;;;12280816;28;20472;-81
2023/08/28 16:56:43;;;;;;;;;;;19.10;99.90;;;;;;12275788;28;19939;-81
2023/08/28 17:02:45;;;;;;;;;;;19.00;99.90;;;;;;12272545;28;19930;-81
2023/08/28 17:08:48;;;;;;;;;;;19.20;99.90;;;;;;12275467;28;20210;-82
2023/08/28 17:14:50;;;;;;;;;;;19.10;99.90;;;;;;12275319;28;19931;-81
2023/08/28 17:20:52;;;;;;;;;;;18.90;99.90;;;;;;12268835;28;19930;-81
2023/08/28 17:26:57;;;;;;;;;;;18.60;99.90;;;;;;12269653;28;19930;-81
2023/08/28 17:32:59;;;;;;;;;;;18.50;99.90;;;;;;12276247;28;19966;-81
2023/08/28 17:39:12;;;;;;;;;;;18.40;99.90;;;;;;12280548;28;19938;-81
2023/08/28 17:45:14;;;;;;;;;;;18.40;99.90;;;;;;12275770;28;19937;-81
2023/08/28 17:51:15;;;;;;;;;;;18.30;99.90;;;;;;12269972;28;19966;-81
2023/08/28 17:57:20;;;;;;;;;;;18.30;99.90;;;;;;12269751;28;19935;-81
2023/08/28 18:03:24;;;;;;;;;;;18.20;99.90;;;;;;12290420;28;20532;-81
2023/08/28 18:09:40;;;;;;;;;;;18.10;99.90;;;;;;12270883;28;20421;-81
2023/08/28 18:15:41;;;;;;;;;;;18.00;99.90;;;;;;12271986;28;19931;-81
2023/08/28 18:21:43;;;;;;;;;;;17.90;99.90;;;;;;12273065;28;19930;-81
2023/08/28 18:27:45;;;;;;;;;;;17.90;99.90;;;;;;12275511;28;20410;-82
2023/08/28 18:34:06;;;;;;;;;;;17.80;99.90;;;;;;12299291;28;19979;-82
2023/08/28 18:40:08;;;;;;;;;;;17.80;99.90;;;;;;12281826;28;19938;-82
2023/08/28 18:46:10;;;;;;;;;;;17.70;99.90;;;;;;12281828;28;19937;-82
2023/08/28 18:52:13;;;;;;;;;;;17.60;99.90;;;;;;12278403;28;19927;-81
2023/08/28 18:58:15;;;;;;;;;;;17.50;99.90;;;;;;12282952;28;20831;-81
2023/08/28 19:04:19;;;;;;;;;;;17.50;99.90;;;;;;12296224;28;20442;-81
2023/08/28 19:10:21;;;;;;;;;;;17.40;99.90;;;;;;12297780;28;19937;-81
2023/08/28 19:16:26;;;;;;;;;;;17.40;99.90;;;;;;12279826;28;19931;-81
2023/08/28 19:22:27;;;;;;;;;;;17.30;99.90;;;;;;12283259;28;19926;-81
2023/08/28 19:28:29;;;;;;;;;;;17.20;99.90;;;;;;12279546;28;19941;-80
2023/08/28 19:34:33;;;;;;;;;;;16.80;99.90;;;;;;12277473;28;19930;-80
2023/08/28 19:40:35;;;;;;;;;;;16.80;99.90;;;;;;12278060;28;20576;-80
2023/08/28 19:46:37;;;;;;;;;;;16.70;99.90;;;;;;12295275;28;20493;-80
2023/08/28 19:52:39;;;;;;;;;;;16.80;99.90;;;;;;12278874;28;19941;-80
2023/08/28 19:58:41;;;;;;;;;;;16.80;99.90;;;;;;12272965;28;20637;-80
2023/08/28 20:04:45;;;;;;;;;;;16.80;99.90;;;;;;12274657;28;19993;-80
2023/08/28 20:10:50;;;;;;;;;;;16.80;99.90;;;;;;12296055;28;19931;-81
2023/08/28 20:16:55;;;;;;;;;;;16.80;99.90;;;;;;12277575;28;19931;-80
2023/08/28 20:22:56;;;;;;;;;;;16.80;99.90;;;;;;12277585;28;19930;-80
2023/08/28 20:28:58;;;;;;;;;;;16.70;99.90;;;;;;12279043;28;20019;-80
2023/08/28 20:35:00;;;;;;;;;;;16.50;99.90;;;;;;12273991;28;19934;-80
2023/08/28 20:41:02;;;;;;;;;;;16.40;99.90;;;;;;12273501;28;20422;-81
2023/08/28 20:47:04;;;;;;;;;;;16.30;99.90;;;;;;12274191;28;20435;-82
2023/08/28 20:53:06;;;;;;;;;;;16.40;99.90;;;;;;12274517;28;19931;-81
2023/08/28 20:59:08;;;;;;;;;;;16.10;99.90;;;;;;12276448;28;19953;-82
2023/08/28 21:05:10;;;;;;;;;;;16.20;99.90;;;;;;12280276;28;19934;-81
2023/08/28 21:11:15;;;;;;;;;;;16.40;99.90;;;;;;12277270;28;19934;-81
2023/08/28 21:17:17;;;;;;;;;;;16.30;99.90;;;;;;12279302;28;19937;-81
2023/08/28 21:23:19;;;;;;;;;;;16.20;99.90;;;;;;12291117;28;19930;-82
2023/08/28 21:29:21;;;;;;;;;;;16.20;99.90;;;;;;12272628;28;19930;-81
2023/08/28 21:35:25;;;;;;;;;;;16.20;99.90;;;;;;12278167;28;19940;-82
2023/08/28 21:41:27;;;;;;;;;;;16.20;99.90;;;;;;12276890;28;19937;-81
2023/08/28 21:47:29;;;;;;;;;;;16.20;99.90;;;;;;12269964;28;19946;-80
2023/08/28 21:53:31;;;;;;;;;;;16.20;99.90;;;;;;12270802;28;20291;-80
2023/08/28 21:59:36;;;;;;;;;;;16.20;99.90;;;;;;12276310;28;20437;-80
2023/08/28 22:05:40;;;;;;;;;;;16.10;99.90;;;;;;12272817;28;19931;-80
2023/08/28 22:11:42;;;;;;;;;;;15.90;99.90;;;;;;12275634;28;19954;-80
2023/08/28 22:17:45;;;;;;;;;;;15.90;99.90;;;;;;12268128;28;20344;-80
2023/08/28 22:23:47;;;;;;;;;;;15.80;99.90;;;;;;12274123;28;20284;-80
2023/08/28 22:29:49;;;;;;;;;;;15.80;99.90;;;;;;12288200;28;19930;-80
2023/08/28 22:35:52;;;;;;;;;;;15.80;99.90;;;;;;12273555;28;19934;-80
2023/08/28 22:41:54;;;;;;;;;;;15.70;99.90;;;;;;12287333;28;19930;-80
2023/08/28 22:47:56;;;;;;;;;;;15.60;99.90;;;;;;12272379;28;20016;-81
2023/08/28 22:53:58;;;;;;;;;;;15.50;99.90;;;;;;12275179;28;19930;-80
2023/08/28 23:00:02;;;;;;;;;;;15.30;99.90;;;;;;12287343;28;19969;-80
2023/08/28 23:06:05;;;;;;;;;;;14.80;99.90;;;;;;12268080;28;19930;-81
2023/08/28 23:12:07;;;;;;;;;;;14.80;99.90;;;;;;12269151;28;20856;-80
2023/08/28 23:18:09;;;;;;;;;;;14.80;99.90;;;;;;12294123;28;20017;-80
2023/08/28 23:24:13;;;;;;;;;;;14.80;99.90;;;;;;12282386;28;20315;-80
2023/08/28 23:30:15;;;;;;;;;;;15.00;99.90;;;;;;12274961;28;20815;-80
2023/08/28 23:36:18;;;;;;;;;;;14.90;99.90;;;;;;12280530;28;20007;-80
2023/08/28 23:42:22;;;;;;;;;;;15.00;99.90;;;;;;12277724;28;20245;-80
2023/08/28 23:48:24;;;;;;;;;;;15.00;99.90;;;;;;12280768;28;19953;-80
2023/08/28 23:54:26;;;;;;;;;;;15.00;99.90;;;;;;12282890;28;19934;-81
